Time;durP1;ratioP1;P1;durP2;ratioP2;P2;SDS_P1;SDS_P2;PMS_P1;PMS_P2;Temp;Humidity;BMP_temperature;BMP_pressure;BME280_temperature;BME280_humidity;BME280_pressure;Samples;Min_cycle;Max_cycle;Signal;HPM_P1;HPM_P2
2023/09/14 00:00:33;;;;;;;0.98;0.90;;;;;;;22.76;60.10;102215.19;4980748;28;20038;-58
2023/09/14 00:02:59;;;;;;;2.05;0.95;;;;;;;22.75;59.94;102216.16;4992262;28;20042;-58
2023/09/14 00:05:25;;;;;;;1.40;0.90;;;;;;;22.74;60.07;102217.19;4980534;28;20022;-58
2023/09/14 00:07:50;;;;;;;0.80;0.70;;;;;;;22.75;60.08;102229.75;4982245;28;20067;-57
2023/09/14 00:10:15;;;;;;;1.05;1.00;;;;;;;22.74;59.82;102220.75;4988325;28;20054;-58
2023/09/14 00:12:41;;;;;;;0.95;0.70;;;;;;;22.73;60.09;102218.16;4980452;28;20031;-58
2023/09/14 00:15:06;;;;;;;1.13;0.93;;;;;;;22.73;59.71;102220.88;4985647;28;20041;-58
2023/09/14 00:17:32;;;;;;;1.00;0.90;;;;;;;22.72;60.04;102217.31;4985921;28;20544;-58
2023/09/14 00:19:57;;;;;;;0.80;0.80;;;;;;;22.72;60.35;102227.34;4987736;28;20117;-58
2023/09/14 00:22:22;;;;;;;1.30;1.00;;;;;;;22.71;60.33;102225.59;4985404;28;20066;-58
2023/09/14 00:24:48;;;;;;;1.02;0.80;;;;;;;22.70;59.80;102222.03;4989003;28;20034;-58
2023/09/14 00:27:13;;;;;;;0.80;0.70;;;;;;;22.71;59.77;102222.91;4984315;28;20054;-58
2023/09/14 00:29:38;;;;;;;0.95;0.73;;;;;;;22.70;60.10;102227.47;4982899;28;20030;-58
2023/09/14 00:32:04;;;;;;;1.83;1.00;;;;;;;22.68;60.16;102217.78;4987424;28;20090;-58
2023/09/14 00:34:29;;;;;;;1.00;0.90;;;;;;;22.68;60.06;102218.63;4987281;28;20038;-57
2023/09/14 00:36:55;;;;;;;0.60;0.60;;;;;;;22.68;59.72;102223.19;4987292;28;20026;-58
2023/09/14 00:39:20;;;;;;;1.25;0.80;;;;;;;22.68;59.58;102223.19;4987217;28;20030;-58
2023/09/14 00:41:45;;;;;;;1.10;0.82;;;;;;;22.67;59.69;102224.19;4986769;28;20022;-58
2023/09/14 00:44:11;;;;;;;1.13;0.93;;;;;;;22.65;60.10;102219.75;4980399;28;20026;-58
2023/09/14 00:46:36;;;;;;;1.00;0.90;;;;;;;22.65;59.75;102214.31;4986636;28;20040;-57
2023/09/14 00:49:02;;;;;;;1.02;0.93;;;;;;;22.66;59.62;102226.06;4981711;28;20085;-57
2023/09/14 00:51:29;;;;;;;0.80;0.80;;;;;;;22.65;59.75;102225.16;4989771;28;20034;-58
2023/09/14 00:53:55;;;;;;;1.23;0.85;;;;;;;22.64;59.95;102226.19;4981879;28;20081;-58
2023/09/14 00:56:21;;;;;;;0.80;0.80;;;;;;;22.63;59.90;102227.19;4980228;28;20035;-58
2023/09/14 00:58:47;;;;;;;0.95;0.88;;;;;;;22.63;59.46;102223.63;4989241;28;20030;-57
2023/09/14 01:01:14;;;;;;;1.00;0.90;;;;;;;22.62;59.81;102220.06;4982608;28;20033;-58
2023/09/14 01:03:40;;;;;;;0.73;0.68;;;;;;;22.62;59.87;102217.34;4990981;28;20109;-57
2023/09/14 01:06:06;;;;;;;1.02;0.80;;;;;;;22.62;59.67;102224.63;4985148;28;20388;-57
2023/09/14 01:08:32;;;;;;;1.20;1.10;;;;;;;22.60;59.90;102222.06;4983538;28;20022;-57
2023/09/14 01:10:57;;;;;;;0.98;0.90;;;;;;;22.61;59.43;102217.47;4990818;28;20050;-57
2023/09/14 01:13:48;;;;;;;0.88;0.82;;;;;;;22.62;59.71;102225.47;4980743;28;20062;-57
2023/09/14 01:16:42;;;;;;;0.75;0.60;;;;;;;22.61;59.94;102223.75;4982432;28;20080;-58
2023/09/14 01:19:43;;;;;;;1.20;1.10;;;;;;;22.61;59.68;102228.34;4986432;28;20381;-58
2023/09/14 01:22:32;;;;;;;1.05;0.80;;;;;;;22.61;59.65;102229.19;4991009;28;20022;-58
2023/09/14 01:25:04;;;;;;;1.05;0.95;;;;;;;22.57;59.71;102227.75;4988796;28;20038;-57
2023/09/14 01:27:30;;;;;;;1.10;1.00;;;;;;;22.56;59.59;102228.78;4990260;28;20108;-57
2023/09/14 01:29:57;;;;;;;0.80;0.80;;;;;;;22.56;59.74;102226.06;4990466;28;20477;-57
2023/09/14 01:32:24;;;;;;;0.50;0.50;;;;;;;22.55;59.69;102226.19;4988405;28;20414;-57
2023/09/14 01:34:49;;;;;;;1.50;0.80;;;;;;;22.54;59.45;102222.63;4988300;28;20109;-57
2023/09/14 01:37:15;;;;;;;1.08;0.85;;;;;;;22.53;59.80;102218.19;4992326;28;20555;-57
2023/09/14 01:39:41;;;;;;;1.25;0.90;;;;;;;22.53;59.28;102218.19;4988194;28;20489;-57
2023/09/14 01:42:07;;;;;;;0.80;0.80;;;;;;;22.53;59.41;102218.19;4991969;28;20065;-57
2023/09/14 01:44:33;;;;;;;0.80;0.75;;;;;;;22.52;59.83;102213.75;4987462;28;20034;-57
2023/09/14 01:46:58;;;;;;;1.67;0.98;;;;;;;22.53;59.83;102220.06;4990131;28;20095;-57
2023/09/14 01:49:24;;;;;;;1.15;1.05;;;;;;;22.51;59.18;102222.91;4994285;28;20083;-57
2023/09/14 01:51:49;;;;;;;0.70;0.70;;;;;;;22.51;59.56;102216.63;4989200;28;20065;-57
2023/09/14 01:54:15;;;;;;;0.80;0.80;;;;;;;22.51;59.18;102220.19;4990522;28;20491;-57
2023/09/14 01:56:41;;;;;;;0.90;0.80;;;;;;;22.50;59.30;102221.19;4991437;28;20080;-58
2023/09/14 01:59:07;;;;;;;1.00;0.90;;;;;;;22.49;59.68;102224.91;4983945;28;20525;-57
2023/09/14 02:01:32;;;;;;;0.75;0.75;;;;;;;22.50;59.27;102220.34;4994852;28;20122;-57
2023/09/14 02:03:58;;;;;;;0.80;0.77;;;;;;;22.49;59.18;102230.34;4984480;28;20473;-57
2023/09/14 02:06:23;;;;;;;0.77;0.77;;;;;;;22.49;59.37;102218.63;4984566;28;20030;-57
2023/09/14 02:08:48;;;;;;;0.60;0.60;;;;;;;22.47;59.52;102221.50;4989843;28;20061;-57
2023/09/14 02:11:14;;;;;;;0.60;0.60;;;;;;;22.47;59.25;102215.22;4984117;28;20035;-58
2023/09/14 02:13:40;;;;;;;0.80;0.80;;;;;;;22.47;58.85;102220.63;4993097;28;20049;-57
2023/09/14 02:16:05;;;;;;;0.77;0.75;;;;;;;22.46;58.82;102219.75;4989049;28;20035;-57
2023/09/14 02:18:31;;;;;;;0.80;0.80;;;;;;;22.47;58.90;102215.22;4990350;28;20385;-57
2023/09/14 02:20:56;;;;;;;0.70;0.70;;;;;;;22.45;59.04;102218.06;4992178;28;20041;-57
2023/09/14 02:23:22;;;;;;;1.10;0.90;;;;;;;22.44;58.93;102209.03;4988240;28;20038;-57
2023/09/14 02:25:48;;;;;;;0.60;0.60;;;;;;;22.44;58.96;102211.75;4987979;28;20037;-57
2023/09/14 02:28:15;;;;;;;1.23;0.90;;;;;;;22.45;59.21;102212.63;4990760;28;20085;-57
2023/09/14 02:30:40;;;;;;;0.82;0.80;;;;;;;22.43;58.87;102207.34;4987575;28;20054;-57
2023/09/14 02:33:07;;;;;;;0.77;0.73;;;;;;;22.43;59.04;102209.22;4987904;28;20062;-57
2023/09/14 02:35:33;;;;;;;0.88;0.88;;;;;;;22.43;59.03;102206.50;4989424;28;20088;-57
2023/09/14 02:37:58;;;;;;;0.98;0.90;;;;;;;22.41;59.19;102206.63;4988431;28;20034;-57
2023/09/14 02:40:24;;;;;;;0.85;0.70;;;;;;;22.42;58.72;102197.47;4988876;28;20419;-57
2023/09/14 02:42:49;;;;;;;0.77;0.77;;;;;;;22.41;58.82;102200.34;4993961;28;20066;-57
2023/09/14 02:45:14;;;;;;;1.40;0.80;;;;;;;22.41;58.64;102203.06;4989660;28;20038;-57
2023/09/14 02:47:40;;;;;;;0.88;0.75;;;;;;;22.40;59.11;102198.63;4987165;28;20093;-57
2023/09/14 02:50:05;;;;;;;0.80;0.77;;;;;;;22.40;58.89;102198.63;4986384;28;20084;-57
2023/09/14 02:52:31;;;;;;;1.10;0.80;;;;;;;22.40;58.83;102198.63;4993037;28;20030;-57
2023/09/14 02:54:56;;;;;;;1.30;0.80;;;;;;;22.40;59.19;102204.91;4989706;28;20480;-57
2023/09/14 02:57:21;;;;;;;0.52;0.52;;;;;;;22.39;58.83;102202.31;4986545;28;20039;-57
2023/09/14 02:59:47;;;;;;;0.70;0.70;;;;;;;22.39;58.83;102207.75;4992923;28;20036;-57
2023/09/14 03:02:12;;;;;;;0.80;0.80;;;;;;;22.38;58.66;102201.47;4988606;28;20037;-57
2023/09/14 03:04:38;;;;;;;0.73;0.73;;;;;;;22.39;58.84;102196.91;4984298;28;20037;-58
2023/09/14 03:07:03;;;;;;;0.93;0.70;;;;;;;22.37;58.60;102197.06;4995442;28;20125;-57
2023/09/14 03:09:29;;;;;;;1.10;0.70;;;;;;;22.37;58.84;102194.34;4982231;28;20042;-57
2023/09/14 03:11:54;;;;;;;1.08;0.73;;;;;;;22.37;58.98;102193.47;4986414;28;20030;-58
2023/09/14 03:14:20;;;;;;;0.65;0.63;;;;;;;22.35;58.40;102198.19;4988972;28;20124;-57
2023/09/14 03:16:45;;;;;;;0.73;0.70;;;;;;;22.34;58.74;102200.03;4984102;28;20033;-57
2023/09/14 03:19:11;;;;;;;0.77;0.70;;;;;;;22.34;58.35;102199.19;4989205;28;20491;-57
2023/09/14 03:21:36;;;;;;;0.80;0.77;;;;;;;22.34;58.69;102196.50;4986919;28;20452;-57
2023/09/14 03:24:01;;;;;;;0.75;0.75;;;;;;;22.34;58.59;102202.75;4987523;28;20038;-57
2023/09/14 03:26:30;;;;;;;0.50;0.50;;;;;;;22.33;58.78;102197.47;4989804;28;20539;-57
2023/09/14 03:28:55;;;;;;;0.75;0.75;;;;;;;22.32;58.14;102206.63;4988765;28;20369;-57
2023/09/14 03:31:21;;;;;;;0.82;0.80;;;;;;;22.32;58.19;102209.34;4985569;28;20045;-57
2023/09/14 03:33:47;;;;;;;0.50;0.50;;;;;;;22.31;58.45;102207.63;4986401;28;20484;-57
2023/09/14 03:36:14;;;;;;;0.75;0.63;;;;;;;22.30;58.64;102204.06;4986889;28;20121;-57
2023/09/14 03:38:39;;;;;;;3.35;0.80;;;;;;;22.30;58.74;102211.34;4992148;28;20040;-58
2023/09/14 03:41:05;;;;;;;0.60;0.60;;;;;;;22.30;58.63;102208.63;4985437;28;20038;-57
2023/09/14 03:43:30;;;;;;;1.10;0.90;;;;;;;22.30;58.12;102208.63;4987497;28;20085;-57
2023/09/14 03:45:57;;;;;;;0.80;0.80;;;;;;;22.29;58.13;102210.47;4988589;28;20085;-57
2023/09/14 03:48:22;;;;;;;0.70;0.70;;;;;;;22.28;58.04;102205.19;4987797;28;20488;-57
2023/09/14 03:50:48;;;;;;;0.57;0.57;;;;;;;22.27;58.22;102206.19;4980845;28;20023;-57
2023/09/14 03:53:14;;;;;;;0.70;0.70;;;;;;;22.26;58.11;102205.34;4993497;28;20033;-57
2023/09/14 03:55:40;;;;;;;0.60;0.60;;;;;;;22.28;58.20;102210.63;4982784;28;20034;-57
2023/09/14 03:58:05;;;;;;;0.60;0.60;;;;;;;22.25;57.96;102209.88;4982942;28;20482;-57
2023/09/14 04:00:31;;;;;;;0.55;0.55;;;;;;;22.25;57.94;102200.91;4990052;28;20039;-57
2023/09/14 04:02:56;;;;;;;1.38;1.00;;;;;;;22.24;58.19;102197.31;4984015;28;20401;-57
2023/09/14 04:05:22;;;;;;;0.70;0.70;;;;;;;22.24;58.37;102200.00;4991254;28;20121;-57
2023/09/14 04:07:47;;;;;;;0.63;0.63;;;;;;;22.23;57.87;102203.72;4984457;28;20073;-57
2023/09/14 04:10:13;;;;;;;1.05;0.85;;;;;;;22.23;58.20;102203.72;4985385;28;20117;-58
2023/09/14 04:12:42;;;;;;;0.80;0.80;;;;;;;22.23;58.08;102203.72;4988843;28;20103;-57
2023/09/14 04:15:09;;;;;;;1.17;0.80;;;;;;;22.21;58.08;102205.72;4983213;28;20030;-57
2023/09/14 04:17:35;;;;;;;0.70;0.70;;;;;;;22.22;58.01;102199.31;4981840;28;20038;-57
2023/09/14 04:20:09;;;;;;;0.80;0.77;;;;;;;22.21;58.06;102200.28;4985682;28;20521;-57
2023/09/14 04:22:34;;;;;;;1.02;0.75;;;;;;;22.22;57.76;102206.59;4982160;28;20039;-57
2023/09/14 04:24:59;;;;;;;0.68;0.63;;;;;;;22.20;58.08;102197.72;4986197;28;20522;-57
2023/09/14 04:27:25;;;;;;;1.58;0.90;;;;;;;22.20;58.07;102197.72;4987321;28;20037;-57
2023/09/14 04:29:50;;;;;;;0.93;0.70;;;;;;;22.20;57.65;102204.00;4988649;28;20030;-57
2023/09/14 04:32:15;;;;;;;0.68;0.63;;;;;;;22.19;57.64;102204.16;4988079;28;20030;-58
2023/09/14 04:34:41;;;;;;;1.23;0.70;;;;;;;22.18;58.16;102199.72;4983217;28;20170;-57
2023/09/14 04:37:07;;;;;;;0.77;0.65;;;;;;;22.18;57.91;102202.41;4990466;28;20031;-57
2023/09/14 04:39:34;;;;;;;0.50;0.40;;;;;;;22.17;57.67;102209.72;4983211;28;20117;-57
2023/09/14 04:42:00;;;;;;;0.55;0.55;;;;;;;22.16;58.19;102208.00;4979254;28;20117;-57
2023/09/14 04:44:26;;;;;;;0.65;0.65;;;;;;;22.16;58.06;102202.59;4991196;28;20161;-57
2023/09/14 04:46:51;;;;;;;0.95;0.52;;;;;;;22.15;57.50;102200.00;4980314;28;20029;-57
2023/09/14 04:49:16;;;;;;;0.60;0.60;;;;;;;22.14;57.69;102204.59;4987071;28;20070;-57
2023/09/14 04:51:42;;;;;;;0.63;0.55;;;;;;;22.14;57.92;102201.00;4990886;28;20041;-57
2023/09/14 04:54:07;;;;;;;1.25;0.80;;;;;;;22.15;57.64;102205.44;4983294;28;20054;-57
2023/09/14 04:56:32;;;;;;;1.40;0.60;;;;;;;22.13;57.34;102202.84;4981226;28;20023;-57
2023/09/14 04:58:58;;;;;;;1.00;0.82;;;;;;;22.13;57.51;102208.28;4989892;28;20042;-58
2023/09/14 05:01:23;;;;;;;0.70;0.70;;;;;;;22.13;57.28;102204.72;4983875;28;20043;-57
2023/09/14 05:03:48;;;;;;;0.93;0.57;;;;;;;22.12;57.56;102205.69;4988614;28;20042;-57
2023/09/14 05:06:14;;;;;;;1.13;0.75;;;;;;;22.10;57.32;102208.56;4984933;28;20062;-57
2023/09/14 05:08:39;;;;;;;0.70;0.70;;;;;;;22.11;57.49;102206.72;4981410;28;20038;-56
2023/09/14 05:11:05;;;;;;;0.47;0.47;;;;;;;22.10;57.04;102200.41;4987392;28;20063;-57
2023/09/14 05:13:30;;;;;;;1.13;0.60;;;;;;;22.10;57.16;102211.25;4988214;28;20039;-57
2023/09/14 05:15:56;;;;;;;0.57;0.52;;;;;;;22.09;57.39;102204.13;4987938;28;20033;-57
2023/09/14 05:18:21;;;;;;;0.88;0.80;;;;;;;22.02;54.36;102205.69;4985865;28;20037;-55
2023/09/14 05:20:48;;;;;;;3.53;1.17;;;;;;;21.95;52.02;102204.53;4986598;28;20491;-55
2023/09/14 05:23:13;;;;;;;6.57;1.25;;;;;;;21.86;51.57;102206.25;4992282;28;20080;-54
2023/09/14 05:25:42;;;;;;;6.50;1.00;;;;;;;21.81;51.65;102214.78;4988242;28;20026;-54
2023/09/14 05:28:08;;;;;;;3.95;1.10;;;;;;;21.73;51.79;102222.75;4985747;28;20062;-55
2023/09/14 05:30:34;;;;;;;6.93;1.00;;;;;;;21.68;51.37;102230.44;4979470;28;20041;-55
2023/09/14 05:33:00;;;;;;;6.75;1.13;;;;;;;21.67;51.63;102226.03;4989118;28;20034;-55
2023/09/14 05:35:26;;;;;;;6.93;1.10;;;;;;;21.66;51.56;102221.56;4985104;28;20073;-56
2023/09/14 05:37:52;;;;;;;6.32;1.05;;;;;;;21.67;52.01;102226.88;4978855;28;20082;-54
2023/09/14 05:40:17;;;;;;;6.20;1.10;;;;;;;21.69;51.96;102231.31;4989824;28;20121;-54
2023/09/14 05:42:43;;;;;;;6.72;0.90;;;;;;;21.69;51.90;102232.16;4979057;28;20050;-54
2023/09/14 05:45:11;;;;;;;7.82;1.33;;;;;;;21.71;52.62;102238.28;4983507;28;20115;-54
2023/09/14 05:47:37;;;;;;;1.73;0.80;;;;;;;21.73;52.67;102238.16;4987078;28;20026;-53
2023/09/14 05:50:03;;;;;;;1.15;0.90;;;;;;;21.77;52.87;102235.03;4987221;28;20539;-54
2023/09/14 05:52:30;;;;;;;3.80;0.80;;;;;;;21.77;52.83;102235.03;4982485;28;20449;-54
2023/09/14 05:54:55;;;;;;;4.22;1.02;;;;;;;21.79;52.91;102233.03;4986606;28;20484;-54
2023/09/14 05:57:21;;;;;;;3.00;0.82;;;;;;;21.81;53.09;102235.63;4988237;28;20023;-54
2023/09/14 05:59:46;;;;;;;3.65;0.80;;;;;;;21.81;53.20;102241.03;4985880;28;20369;-54
2023/09/14 06:02:11;;;;;;;2.42;1.10;;;;;;;21.83;52.94;102239.03;4983967;28;20141;-54
2023/09/14 06:04:37;;;;;;;1.63;0.60;;;;;;;21.83;53.26;102242.59;4987512;28;20544;-54
2023/09/14 06:07:03;;;;;;;3.00;0.80;;;;;;;21.84;53.56;102243.50;4994024;28;20034;-54
2023/09/14 06:09:32;;;;;;;5.18;0.70;;;;;;;21.84;53.21;102248.91;4990721;28;20325;-54
2023/09/14 06:11:58;;;;;;;2.58;0.73;;;;;;;21.85;53.60;102246.03;4988880;28;20034;-54
2023/09/14 06:14:24;;;;;;;3.17;0.85;;;;;;;21.85;53.32;102243.31;4989314;28;20400;-54
2023/09/14 06:16:49;;;;;;;1.45;0.60;;;;;;;21.86;53.38;102238.78;4985111;28;20089;-54
2023/09/14 06:19:14;;;;;;;3.83;0.60;;;;;;;21.88;53.42;102230.50;4983604;28;20038;-54
2023/09/14 06:21:40;;;;;;;1.02;0.50;;;;;;;21.86;53.71;102239.63;4986871;28;20149;-54
2023/09/14 06:24:05;;;;;;;4.22;0.88;;;;;;;21.87;53.57;102243.19;4994945;28;20140;-54
2023/09/14 06:26:31;;;;;;;1.65;0.60;;;;;;;21.89;53.88;102243.06;4991334;28;20473;-54
2023/09/14 06:28:56;;;;;;;0.57;0.57;;;;;;;21.88;53.58;102244.06;4986607;28;20042;-54
2023/09/14 06:31:25;;;;;;;1.85;0.70;;;;;;;21.88;53.94;102246.78;4983873;28;20034;-54
2023/09/14 06:33:50;;;;;;;1.40;0.80;;;;;;;21.88;53.59;102242.22;4984544;28;20022;-54
2023/09/14 06:36:19;;;;;;;1.40;0.60;;;;;;;21.89;53.94;102243.06;4988901;28;20416;-54
2023/09/14 06:38:46;;;;;;;1.60;0.82;;;;;;;21.89;54.25;102254.75;4984397;28;20153;-54
2023/09/14 06:41:15;;;;;;;1.65;0.80;;;;;;;21.89;53.91;102243.91;4989510;28;20039;-54
2023/09/14 06:43:44;;;;;;;1.67;0.80;;;;;;;21.89;53.76;102245.78;4987437;28;20064;-54
2023/09/14 06:46:10;;;;;;;1.10;0.70;;;;;;;21.88;54.06;102247.63;4990528;28;20046;-54
2023/09/14 06:48:35;;;;;;;1.38;0.70;;;;;;;21.88;53.79;102244.06;4983441;28;20034;-53
2023/09/14 06:51:01;;;;;;;1.23;0.70;;;;;;;21.88;54.38;102247.63;4987095;28;20130;-54
2023/09/14 06:53:26;;;;;;;2.60;0.80;;;;;;;21.89;53.95;102245.78;4986619;28;20105;-54
2023/09/14 06:55:52;;;;;;;1.60;0.82;;;;;;;21.89;54.24;102243.91;4988076;28;20018;-54
2023/09/14 06:58:17;;;;;;;1.35;0.63;;;;;;;21.90;54.58;102244.78;4987491;28;20027;-54
2023/09/14 07:00:43;;;;;;;1.30;0.60;;;;;;;21.89;54.26;102245.78;4986787;28;20387;-55
2023/09/14 07:03:08;;;;;;;1.50;0.77;;;;;;;21.89;54.07;102243.06;4988648;28;20038;-54
2023/09/14 07:05:35;;;;;;;1.90;0.80;;;;;;;21.88;54.38;102252.22;4990545;28;20129;-54
2023/09/14 07:08:00;;;;;;;0.60;0.50;;;;;;;21.88;54.03;102255.75;4988689;28;20713;-54
2023/09/14 07:10:26;;;;;;;1.15;0.80;;;;;;;21.88;54.22;102254.91;4988962;28;20088;-54
2023/09/14 07:12:51;;;;;;;1.40;0.65;;;;;;;21.87;54.27;102256.75;4989526;28;20034;-54
2023/09/14 07:15:17;;;;;;;0.88;0.60;;;;;;;21.89;54.57;102248.47;4987710;28;20535;-54
2023/09/14 07:17:43;;;;;;;0.90;0.63;;;;;;;21.88;53.92;102252.22;4984593;28;20034;-54
2023/09/14 07:20:09;;;;;;;0.60;0.60;;;;;;;21.88;54.27;102246.78;4981354;28;20041;-54
2023/09/14 07:22:35;;;;;;;0.60;0.60;;;;;;;21.86;54.12;102244.19;4990961;28;20040;-54
2023/09/14 07:25:01;;;;;;;1.58;0.93;;;;;;;21.85;54.09;102247.91;4980162;28;20361;-54
2023/09/14 07:27:27;;;;;;;2.30;0.80;;;;;;;21.84;54.11;102249.75;4989953;28;20506;-54
2023/09/14 07:29:52;;;;;;;1.05;0.70;;;;;;;21.85;54.05;102247.91;4985205;28;20027;-54
2023/09/14 07:32:18;;;;;;;1.85;0.82;;;;;;;21.84;54.41;102247.03;4984041;28;20093;-54
2023/09/14 07:34:44;;;;;;;0.77;0.70;;;;;;;21.84;54.71;102249.75;4985133;28;20022;-54
2023/09/14 07:37:09;;;;;;;2.15;0.73;;;;;;;21.83;54.83;102261.59;4984685;28;20034;-55
2023/09/14 07:39:35;;;;;;;0.75;0.73;;;;;;;21.85;54.55;102258.75;4985830;28;20099;-54
2023/09/14 07:42:00;;;;;;;0.93;0.65;;;;;;;21.84;54.33;102263.31;4988069;28;20085;-55
2023/09/14 07:44:25;;;;;;;0.95;0.80;;;;;;;21.83;54.85;102255.31;4986320;28;20449;-54
2023/09/14 07:46:51;;;;;;;1.20;0.77;;;;;;;21.84;54.26;102270.59;4984998;28;20042;-55
2023/09/14 07:49:16;;;;;;;1.35;0.70;;;;;;;21.83;54.59;102261.59;4989844;28;20093;-55
2023/09/14 07:51:42;;;;;;;0.95;0.73;;;;;;;21.82;54.54;102262.59;4986945;28;20037;-55
2023/09/14 07:54:07;;;;;;;0.68;0.60;;;;;;;21.83;54.60;102268.88;4989622;28;20033;-55
2023/09/14 07:56:32;;;;;;;1.00;0.70;;;;;;;21.83;54.97;102268.88;4981715;28;20117;-55
2023/09/14 07:58:58;;;;;;;0.73;0.70;;;;;;;21.81;54.92;102269.00;4984575;28;20452;-55
2023/09/14 08:01:23;;;;;;;0.85;0.82;;;;;;;21.83;54.55;102271.59;4983788;28;20108;-55
2023/09/14 08:03:49;;;;;;;0.75;0.70;;;;;;;21.82;54.70;102270.72;4988860;28;20030;-55
2023/09/14 08:06:18;;;;;;;1.10;1.00;;;;;;;21.81;55.07;102271.72;4986817;28;20030;-55
2023/09/14 08:08:44;;;;;;;0.98;0.70;;;;;;;21.82;54.46;102275.31;4985880;28;20523;-55
2023/09/14 08:11:09;;;;;;;1.35;0.80;;;;;;;21.81;55.04;102270.84;4986646;28;20134;-55
2023/09/14 08:13:35;;;;;;;1.48;0.80;;;;;;;21.81;55.00;102268.16;4979788;28;20118;-55
2023/09/14 08:16:04;;;;;;;1.60;0.70;;;;;;;21.79;54.90;102271.00;4991561;28;20038;-56
2023/09/14 08:18:30;;;;;;;1.00;0.90;;;;;;;21.81;54.51;102269.00;4978093;28;20038;-55
2023/09/14 08:20:55;;;;;;;1.10;0.90;;;;;;;21.80;54.88;102266.41;4980840;28;20089;-55
2023/09/14 08:23:20;;;;;;;1.10;0.90;;;;;;;21.81;54.67;102263.56;4986659;28;20035;-55
2023/09/14 08:25:46;;;;;;;1.45;0.90;;;;;;;21.81;55.19;102265.44;4982636;28;20519;-55
2023/09/14 08:28:14;;;;;;;1.45;0.70;;;;;;;21.80;55.04;102264.59;4988344;28;20432;-55
2023/09/14 08:30:40;;;;;;;0.63;0.63;;;;;;;21.79;55.25;102265.56;4982514;28;20482;-55
2023/09/14 08:33:07;;;;;;;0.82;0.80;;;;;;;21.79;55.17;102265.56;4992066;28;20034;-55
2023/09/14 08:35:34;;;;;;;2.05;0.70;;;;;;;21.80;55.05;102267.31;4987336;28;20046;-55
2023/09/14 08:38:02;;;;;;;0.70;0.70;;;;;;;21.80;55.34;102271.84;4984387;28;20361;-55
2023/09/14 08:40:29;;;;;;;1.13;0.82;;;;;;;21.80;54.75;102278.16;4985123;28;20481;-55
2023/09/14 08:42:55;;;;;;;1.30;0.80;;;;;;;21.78;55.03;102263.88;4986370;28;20116;-55
2023/09/14 08:45:27;;;;;;;0.75;0.70;;;;;;;21.80;55.19;102280.84;4986785;28;20447;-55
2023/09/14 08:47:52;;;;;;;;;;;;;;;21.88;55.11;102277.47;4987448;28;20025;-55
2023/09/14 08:50:20;;;;;;;1.60;0.80;;;;;;;21.81;55.01;102285.28;4984802;28;19992;-55
2023/09/14 08:52:46;;;;;;;1.08;0.70;;;;;;;21.81;55.39;102279.00;4987524;28;20504;-55
2023/09/14 08:55:12;;;;;;;0.65;0.60;;;;;;;21.80;55.04;102272.72;4987543;28;20174;-55
2023/09/14 08:57:43;;;;;;;1.05;0.75;;;;;;;21.81;55.30;102279.84;4976762;28;20385;-55
2023/09/14 09:00:16;;;;;;;2.10;1.17;;;;;;;21.79;55.57;102270.16;4982382;28;20034;-55
2023/09/14 09:02:47;;;;;;;2.00;1.40;;;;;;;21.78;55.84;102274.72;4984674;28;20113;-55
2023/09/14 09:05:14;;;;;;;4.30;2.03;;;;;;;21.80;56.01;102267.31;4989502;28;20038;-55
2023/09/14 09:07:41;;;;;;;5.85;2.88;;;;;;;21.78;56.01;102263.88;4984455;28;20066;-54
2023/09/14 09:10:15;;;;;;;5.18;3.10;;;;;;;21.78;56.24;102263.88;4990813;28;20520;-55
2023/09/14 09:12:41;;;;;;;8.52;3.33;;;;;;;21.76;56.40;102265.88;4988073;28;20054;-54
2023/09/14 09:15:09;;;;;;;6.00;3.22;;;;;;;21.77;56.86;102264.84;4957114;28;20064;-54
2023/09/14 09:17:39;;;;;;;6.90;3.13;;;;;;;21.75;56.79;102269.56;4989341;28;20125;-54
2023/09/14 09:20:12;;;;;;;6.00;3.45;;;;;;;21.75;56.84;102264.13;4983195;28;20022;-55
2023/09/14 09:22:44;;;;;;;8.15;3.88;;;;;;;21.73;57.41;102255.28;4983690;28;20089;-53
2023/09/14 09:25:11;;;;;;;6.03;3.72;;;;;;;21.72;57.49;102258.97;4983935;28;20030;-56
2023/09/14 09:27:38;;;;;;;7.13;4.00;;;;;;;21.75;57.07;102257.88;4988003;28;20085;-53
2023/09/14 09:30:04;;;;;;;7.13;4.18;;;;;;;21.78;57.70;102261.16;4990205;28;20027;-55
2023/09/14 09:32:29;;;;;;;12.25;4.95;;;;;;;21.86;57.75;102260.47;4990068;28;20422;-52
2023/09/14 09:34:55;;;;;;;7.45;4.30;;;;;;;21.91;57.43;102268.19;4988612;28;20050;-49
2023/09/14 09:37:23;;;;;;;8.85;4.50;;;;;;;21.95;57.15;102258.75;4987200;28;20117;-52
2023/09/14 09:39:49;;;;;;;6.32;3.58;;;;;;;22.00;56.87;102257.34;4990201;28;20027;-53
2023/09/14 09:42:19;;;;;;;14.65;4.75;;;;;;;22.06;56.40;102261.38;4992083;28;20042;-53
2023/09/14 09:44:45;;;;;;;7.53;4.07;;;;;;;22.13;56.28;102256.25;4991027;28;20255;-53
2023/09/14 09:47:12;;;;;;;5.80;3.78;;;;;;;22.19;56.47;102256.53;4990326;28;20038;-52
2023/09/14 09:49:39;;;;;;;6.07;3.22;;;;;;;22.21;55.98;102254.53;4991786;28;20396;-51
2023/09/14 09:52:09;;;;;;;10.25;3.40;;;;;;;22.23;56.34;102249.84;4993018;28;20041;-52
2023/09/14 09:54:35;;;;;;;8.00;3.15;;;;;;;22.29;56.12;102245.72;4991161;28;20388;-52
2023/09/14 09:57:03;;;;;;;4.53;3.50;;;;;;;22.30;55.69;102246.63;4991162;28;20031;-52
2023/09/14 09:59:30;;;;;;;6.95;3.40;;;;;;;22.34;55.27;102248.03;4990782;28;20069;-53
2023/09/14 10:01:56;;;;;;;6.43;3.10;;;;;;;22.35;55.58;102244.31;4990802;28;20400;-49
2023/09/14 10:04:27;;;;;;;6.07;2.90;;;;;;;22.36;55.58;102251.47;4991859;28;20030;-52
2023/09/14 10:06:55;;;;;;;6.40;3.33;;;;;;;22.40;54.87;102247.47;4991533;28;20158;-51
2023/09/14 10:09:21;;;;;;;8.25;2.88;;;;;;;22.38;55.17;102253.03;4974237;28;20043;-57
2023/09/14 10:11:49;;;;;;;8.70;3.72;;;;;;;22.31;54.39;102243.75;4990799;28;20031;-57
2023/09/14 10:14:18;;;;;;;6.85;3.30;;;;;;;22.23;54.85;102243.56;4986003;28;20453;-57
2023/09/14 10:16:45;;;;;;;6.82;3.45;;;;;;;22.18;54.96;102243.13;4985461;28;20109;-57
2023/09/14 10:19:11;;;;;;;7.82;2.92;;;;;;;22.14;55.02;102237.13;4989171;28;20028;-57
2023/09/14 10:21:41;;;;;;;5.75;2.88;;;;;;;22.09;55.24;102239.41;4989221;28;20506;-57
2023/09/14 10:24:07;;;;;;;9.98;3.00;;;;;;;22.06;55.22;102235.09;4984493;28;20038;-57
2023/09/14 10:26:39;;;;;;;6.90;3.42;;;;;;;22.04;55.02;102231.66;4989208;28;20097;-57
2023/09/14 10:29:08;;;;;;;6.72;3.08;;;;;;;22.02;55.27;102239.09;4988176;28;20526;-57
2023/09/14 10:31:35;;;;;;;4.97;2.88;;;;;;;21.99;55.36;102242.09;4988623;28;20376;-57
2023/09/14 10:34:01;;;;;;;7.35;3.33;;;;;;;21.98;55.51;102236.81;4990120;28;20030;-57
2023/09/14 10:36:30;;;;;;;4.88;3.33;;;;;;;21.97;55.26;102232.38;4990533;28;20101;-57
2023/09/14 10:38:59;;;;;;;5.72;3.00;;;;;;;21.94;55.70;102229.94;4988886;28;20050;-57
2023/09/14 10:41:26;;;;;;;5.18;2.85;;;;;;;21.93;55.05;102231.78;4993757;28;20046;-57
2023/09/14 10:43:55;;;;;;;6.85;3.78;;;;;;;21.92;55.21;102219.25;4991246;28;20084;-57
2023/09/14 10:46:25;;;;;;;7.72;3.88;;;;;;;21.93;54.99;102225.50;4985281;28;20034;-57
2023/09/14 10:48:52;;;;;;;10.95;3.40;;;;;;;21.94;55.54;102219.09;4986194;28;20034;-57
2023/09/14 10:51:20;;;;;;;6.22;2.83;;;;;;;21.92;55.29;102221.09;4984386;28;20053;-57
2023/09/14 10:53:46;;;;;;;5.43;2.70;;;;;;;21.93;55.31;102215.50;4992064;28;20100;-57
2023/09/14 10:56:22;;;;;;;3.97;3.28;;;;;;;21.93;55.08;102207.38;4985734;28;20493;-57
2023/09/14 10:58:52;;;;;;;5.88;2.60;;;;;;;21.93;55.62;102214.66;4989507;28;20094;-57
2023/09/14 11:01:28;;;;;;;7.00;3.00;;;;;;;21.92;55.55;102210.25;4989735;28;20500;-57
2023/09/14 11:04:06;;;;;;;11.07;3.40;;;;;;;21.93;55.53;102209.25;4989358;28;20061;-57
2023/09/14 11:06:46;;;;;;;8.73;3.38;;;;;;;21.93;55.42;102204.66;4988826;28;20477;-57
2023/09/14 11:09:14;;;;;;;5.78;2.72;;;;;;;21.91;55.10;102206.66;4986084;28;20030;-57
2023/09/14 11:11:46;;;;;;;3.92;2.97;;;;;;;21.92;55.69;102199.41;4992453;28;20080;-57
2023/09/14 11:14:13;;;;;;;7.80;3.13;;;;;;;21.90;55.39;102201.41;5001482;28;20034;-57
2023/09/14 11:17:00;;;;;;;4.38;3.08;;;;;;;21.92;55.56;102197.53;4992094;28;20041;-57
2023/09/14 11:19:31;;;;;;;5.20;2.97;;;;;;;21.91;55.56;102205.81;4982505;28;20038;-57
2023/09/14 11:22:11;;;;;;;5.32;3.10;;;;;;;21.91;55.41;102200.38;4987879;28;20532;-57